createdAt,value
2022-07-25T00:01:12.061Z,2.97
2022-07-25T00:03:39.218Z,3.42
2022-07-25T00:06:06.677Z,4.22
2022-07-25T00:08:39.995Z,3.17
2022-07-25T00:11:06.476Z,2.67
2022-07-25T00:13:32.923Z,6.97
2022-07-25T00:15:59.500Z,2.58
2022-07-25T00:18:26.872Z,2.85
2022-07-25T00:20:53.363Z,5.28
2022-07-25T00:23:19.946Z,2.70
2022-07-25T00:25:46.398Z,3.75
2022-07-25T00:28:12.863Z,3.33
2022-07-25T00:30:39.333Z,2.63
2022-07-25T00:33:06.111Z,3.13
2022-07-25T00:35:32.538Z,2.78
2022-07-25T00:37:58.950Z,3.47
2022-07-25T00:40:25.444Z,6.32
2022-07-25T00:42:52.225Z,2.70
2022-07-25T00:45:18.749Z,2.85
2022-07-25T00:47:45.179Z,2.47
2022-07-25T00:50:11.735Z,2.67
2022-07-25T00:52:38.318Z,2.78
2022-07-25T00:55:05.284Z,3.17
2022-07-25T00:57:31.715Z,2.47
2022-07-25T00:59:58.329Z,2.25
2022-07-25T01:02:24.916Z,4.07
2022-07-25T01:04:51.406Z,2.45
2022-07-25T01:07:18.276Z,2.92
2022-07-25T01:09:44.782Z,2.60
2022-07-25T01:12:11.250Z,2.60
2022-07-25T01:14:38.372Z,4.55
2022-07-25T01:17:17.492Z,2.92
2022-07-25T01:19:43.958Z,3.65
2022-07-25T01:22:10.390Z,2.50
2022-07-25T01:24:37.240Z,4.18
2022-07-25T01:27:03.833Z,2.42
2022-07-25T01:29:30.256Z,2.70
2022-07-25T01:31:56.720Z,2.75
2022-07-25T01:34:23.155Z,3.55
2022-07-25T01:36:49.639Z,2.47
2022-07-25T01:39:16.080Z,2.55
2022-07-25T01:41:42.500Z,4.43
2022-07-25T01:44:09.317Z,2.85
2022-07-25T01:46:36.037Z,2.78
2022-07-25T01:49:11.795Z,4.43
2022-07-25T01:51:38.292Z,3.58
2022-07-25T01:54:06.745Z,3.17
2022-07-25T01:56:36.830Z,3.42
2022-07-25T01:59:03.300Z,6.90
2022-07-25T02:01:29.767Z,2.65
2022-07-25T02:03:56.296Z,3.83
2022-07-25T02:06:22.736Z,3.38
2022-07-25T02:08:49.179Z,2.30
2022-07-25T02:11:16.440Z,2.45
2022-07-25T02:13:43.049Z,2.80
2022-07-25T02:16:29.015Z,5.18
2022-07-25T02:18:56.591Z,4.57
2022-07-25T02:21:23.037Z,2.42
2022-07-25T02:23:55.408Z,4.20
2022-07-25T02:26:21.994Z,4.57
2022-07-25T02:28:49.985Z,3.10
2022-07-25T02:31:16.501Z,3.45
2022-07-25T02:33:43.538Z,4.20
2022-07-25T02:36:11.055Z,4.18
2022-07-25T02:38:38.040Z,2.95
2022-07-25T02:41:05.041Z,3.42
2022-07-25T02:43:31.544Z,3.30
2022-07-25T02:45:58.069Z,2.95
2022-07-25T02:48:24.569Z,2.40
2022-07-25T02:50:51.026Z,2.90
2022-07-25T02:53:28.940Z,2.53
2022-07-25T02:56:04.138Z,2.60
2022-07-25T02:58:32.452Z,6.30
2022-07-25T03:00:58.931Z,2.50
2022-07-25T03:03:25.401Z,4.28
2022-07-25T03:05:52.007Z,3.15
2022-07-25T03:08:18.450Z,4.32
2022-07-25T03:10:44.895Z,2.55
2022-07-25T03:13:11.318Z,3.22
2022-07-25T03:15:38.251Z,4.07
2022-07-25T03:18:04.698Z,3.58
2022-07-25T03:20:31.139Z,3.30
2022-07-25T03:22:57.605Z,3.78
2022-07-25T03:25:24.066Z,3.72
2022-07-25T03:27:50.816Z,2.65
2022-07-25T03:30:17.381Z,6.05
2022-07-25T03:32:43.823Z,7.47
2022-07-25T03:35:10.281Z,5.93
2022-07-25T03:37:36.714Z,10.88
2022-07-25T03:40:04.158Z,4.00
2022-07-25T03:42:35.360Z,3.05
2022-07-25T03:45:02.234Z,9.55
2022-07-25T03:47:28.669Z,3.53
2022-07-25T03:49:55.247Z,6.57
2022-07-25T03:52:21.684Z,7.35
2022-07-25T03:54:48.144Z,4.70
2022-07-25T03:57:14.580Z,4.18
2022-07-25T03:59:41.061Z,3.47
2022-07-25T04:02:07.793Z,4.78
2022-07-25T04:04:34.360Z,2.50
2022-07-25T04:07:00.821Z,2.85
2022-07-25T04:09:27.251Z,5.35
2022-07-25T04:11:58.831Z,2.65
2022-07-25T04:14:25.281Z,2.95
2022-07-25T04:16:51.825Z,2.80
2022-07-25T04:19:18.325Z,5.40
2022-07-25T04:21:45.105Z,3.25
2022-07-25T04:24:11.543Z,4.85
2022-07-25T04:26:37.983Z,2.90
2022-07-25T04:29:04.415Z,4.50
2022-07-25T04:31:31.094Z,5.85
2022-07-25T04:33:58.447Z,3.63
2022-07-25T04:36:24.988Z,9.23
2022-07-25T04:38:51.511Z,8.65
2022-07-25T04:41:17.977Z,5.28
2022-07-25T04:43:48.483Z,5.90
2022-07-25T04:46:20.237Z,6.72
2022-07-25T04:48:46.859Z,3.17
2022-07-25T04:51:14.610Z,4.72
2022-07-25T04:53:41.048Z,5.28
2022-07-25T04:56:10.447Z,3.92
2022-07-25T04:58:37.346Z,6.07
2022-07-25T05:01:03.805Z,3.10
2022-07-25T05:03:30.267Z,6.53
2022-07-25T05:05:56.728Z,3.90
2022-07-25T05:08:23.185Z,3.58
2022-07-25T05:10:49.608Z,3.75
2022-07-25T05:13:16.265Z,2.60
2022-07-25T05:15:42.726Z,3.75
2022-07-25T05:18:09.147Z,4.63
2022-07-25T05:20:35.584Z,5.22
2022-07-25T05:23:02.034Z,4.75
2022-07-25T05:25:29.273Z,3.78
2022-07-25T05:27:58.329Z,2.78
2022-07-25T05:30:25.073Z,8.45
2022-07-25T05:32:51.487Z,5.57
2022-07-25T05:35:17.912Z,5.65
2022-07-25T05:37:44.351Z,3.33
2022-07-25T05:40:10.949Z,4.90
2022-07-25T05:42:37.503Z,3.15
2022-07-25T05:45:04.701Z,5.38
2022-07-25T05:47:31.544Z,3.20
2022-07-25T05:49:58.043Z,7.82
2022-07-25T05:52:24.484Z,3.85
2022-07-25T05:54:51.185Z,4.35
2022-07-25T05:57:17.705Z,6.68
2022-07-25T06:00:09.688Z,4.47
2022-07-25T06:02:36.325Z,3.83
2022-07-25T06:05:03.427Z,7.70
2022-07-25T06:07:29.866Z,5.78
2022-07-25T06:09:56.332Z,6.20
2022-07-25T06:12:24.415Z,4.00
2022-07-25T06:14:51.165Z,6.03
2022-07-25T06:17:18.043Z,8.90
2022-07-25T06:19:44.465Z,8.30
2022-07-25T06:22:11.370Z,6.55
2022-07-25T06:24:38.522Z,7.03
2022-07-25T06:27:04.982Z,4.47
2022-07-25T06:29:31.412Z,5.50
2022-07-25T06:31:57.868Z,8.65
2022-07-25T06:34:28.524Z,13.15
2022-07-25T06:36:55.272Z,5.70
2022-07-25T06:39:21.703Z,6.03
2022-07-25T06:41:48.145Z,5.70
2022-07-25T06:44:17.294Z,7.05
2022-07-25T06:46:43.771Z,5.13
2022-07-25T06:49:10.348Z,9.13
2022-07-25T06:51:36.870Z,8.05
2022-07-25T06:54:04.059Z,5.05
2022-07-25T06:56:32.835Z,7.00
2022-07-25T06:59:00.318Z,11.68
2022-07-25T07:01:27.013Z,8.27
2022-07-25T07:03:53.567Z,7.07
2022-07-25T07:06:20.039Z,6.05
2022-07-25T07:08:46.498Z,7.68
2022-07-25T07:11:15.256Z,9.02
2022-07-25T07:13:41.717Z,6.22
2022-07-25T07:16:08.801Z,5.13
2022-07-25T07:18:35.578Z,7.78
2022-07-25T07:21:01.992Z,7.55
2022-07-25T07:23:28.980Z,6.22
2022-07-25T07:25:55.842Z,6.75
2022-07-25T07:28:22.460Z,6.07
2022-07-25T07:33:37.882Z,7.10
2022-07-25T07:36:04.521Z,5.82
2022-07-25T07:38:30.954Z,7.43
2022-07-25T07:40:57.417Z,6.65
2022-07-25T07:43:29.165Z,8.10
2022-07-25T07:45:56.878Z,6.95
2022-07-25T07:48:23.339Z,6.93
2022-07-25T07:50:49.773Z,7.40
2022-07-25T07:53:16.213Z,12.63
2022-07-25T07:55:45.501Z,8.85
2022-07-25T07:58:15.737Z,9.35
2022-07-25T08:00:44.148Z,8.60
2022-07-25T08:03:10.829Z,12.25
2022-07-25T08:05:43.308Z,7.70
2022-07-25T08:08:12.046Z,10.07
2022-07-25T08:10:40.952Z,9.10
2022-07-25T08:13:15.949Z,7.20
2022-07-25T08:15:44.645Z,9.77
2022-07-25T08:18:17.413Z,7.70
2022-07-25T08:20:48.513Z,7.72
2022-07-25T08:25:42.466Z,9.90
2022-07-25T08:28:09.409Z,12.38
2022-07-25T08:30:45.332Z,7.28
2022-07-25T08:33:13.960Z,13.02
2022-07-25T08:35:45.449Z,7.28
2022-07-25T08:38:11.892Z,7.20
2022-07-25T08:40:38.510Z,7.32
2022-07-25T08:43:04.971Z,10.57
2022-07-25T08:45:33.259Z,12.45
2022-07-25T08:47:59.715Z,8.20
2022-07-25T08:50:28.576Z,11.30
2022-07-25T08:53:10.428Z,7.63
2022-07-25T08:55:45.076Z,7.38
2022-07-25T08:58:14.158Z,8.65
2022-07-25T09:00:41.871Z,8.85
2022-07-25T09:03:08.787Z,11.95
2022-07-25T09:05:37.254Z,9.95
2022-07-25T09:08:12.853Z,7.43
2022-07-25T09:10:42.336Z,8.43
2022-07-25T09:13:14.243Z,7.90
2022-07-25T09:15:50.155Z,10.30
2022-07-25T09:18:18.972Z,8.20
2022-07-25T09:21:11.766Z,11.27
2022-07-25T09:23:39.269Z,8.15
2022-07-25T09:26:13.535Z,8.48
2022-07-25T09:28:40.864Z,9.15
2022-07-25T09:31:07.399Z,8.73
2022-07-25T09:33:33.871Z,9.52
2022-07-25T09:36:11.187Z,10.75
2022-07-25T09:38:37.981Z,12.35
2022-07-25T09:41:04.561Z,9.27
2022-07-25T09:43:40.710Z,12.90
2022-07-25T09:46:08.158Z,9.10
2022-07-25T09:48:36.494Z,9.52
2022-07-25T09:51:03.514Z,12.57
2022-07-25T09:53:30.116Z,10.10
2022-07-25T09:55:57.476Z,9.30
2022-07-25T09:58:25.628Z,8.82
2022-07-25T10:01:05.500Z,8.60
2022-07-25T10:03:53.525Z,13.35
2022-07-25T10:06:24.953Z,9.38
2022-07-25T10:08:51.972Z,9.32
2022-07-25T10:11:27.729Z,8.98
2022-07-25T10:13:55.140Z,8.10
2022-07-25T10:16:27.180Z,8.82
2022-07-25T10:18:55.847Z,11.70
2022-07-25T10:21:27.212Z,9.55
2022-07-25T10:24:20.144Z,9.07
2022-07-25T10:26:53.504Z,10.48
2022-07-25T10:29:19.942Z,8.95
2022-07-25T10:31:50.945Z,8.93
2022-07-25T10:34:30.642Z,9.68
2022-07-25T10:37:09.702Z,8.40
2022-07-25T10:39:42.147Z,9.02
2022-07-25T10:42:13.505Z,8.95
2022-07-25T10:44:42.732Z,9.68
2022-07-25T10:47:12.089Z,12.15
2022-07-25T10:50:06.852Z,11.05
2022-07-25T10:52:31.641Z,8.68
2022-07-25T10:54:59.944Z,9.13
2022-07-25T10:57:31.695Z,10.50
2022-07-25T11:00:06.540Z,8.52
2022-07-25T11:02:33.242Z,9.00
2022-07-25T11:05:04.172Z,8.52
2022-07-25T11:07:36.015Z,10.73
2022-07-25T11:10:05.500Z,10.13
2022-07-25T11:12:32.402Z,9.10
2022-07-25T11:15:04.518Z,12.48
2022-07-25T11:17:31.066Z,8.43
2022-07-25T11:20:07.134Z,11.00
2022-07-25T11:22:34.489Z,10.93
2022-07-25T11:25:01.782Z,9.00
2022-07-25T11:27:33.247Z,10.07
2022-07-25T11:30:19.874Z,9.02
2022-07-25T11:32:51.993Z,9.32
2022-07-25T11:35:22.546Z,8.43
2022-07-25T11:37:50.763Z,8.10
2022-07-25T11:40:18.730Z,13.45
2022-07-25T11:42:48.380Z,9.02
2022-07-25T11:45:25.515Z,9.02
2022-07-25T11:48:09.859Z,8.93
2022-07-25T11:50:41.673Z,8.85
2022-07-25T11:53:10.821Z,8.18
2022-07-25T11:55:42.817Z,8.37
2022-07-25T11:58:10.961Z,13.23
2022-07-25T12:00:48.587Z,8.48
2022-07-25T12:03:20.189Z,8.23
2022-07-25T12:05:48.641Z,9.13
2022-07-25T12:08:20.356Z,8.13
2022-07-25T12:10:49.103Z,7.60
2022-07-25T12:13:26.969Z,9.48
2022-07-25T12:15:55.723Z,9.05
2022-07-25T12:18:22.198Z,9.75
2022-07-25T12:20:48.661Z,9.63
2022-07-25T12:23:15.115Z,11.48
2022-07-25T12:25:43.930Z,8.65
2022-07-25T12:28:11.418Z,8.88
2022-07-25T12:30:41.469Z,9.02
2022-07-25T12:33:07.945Z,7.85
2022-07-25T12:35:37.170Z,7.60
2022-07-25T12:38:04.546Z,8.07
2022-07-25T12:40:31.147Z,7.43
2022-07-25T12:42:58.818Z,8.77
2022-07-25T12:45:25.704Z,9.48
2022-07-25T12:47:52.122Z,10.02
2022-07-25T12:50:18.576Z,8.07
2022-07-25T12:52:45.683Z,11.30
2022-07-25T12:55:18.621Z,7.95
2022-07-25T12:57:46.335Z,8.75
2022-07-25T13:00:15.889Z,11.70
2022-07-25T13:02:42.443Z,8.52
2022-07-25T13:05:09.408Z,10.48
2022-07-25T13:07:36.170Z,8.65
2022-07-25T13:10:03.822Z,11.40
2022-07-25T13:12:30.266Z,9.85
2022-07-25T13:14:56.760Z,8.57
2022-07-25T13:17:27.306Z,9.00
2022-07-25T13:19:55.370Z,8.05
2022-07-25T13:22:21.808Z,8.15
2022-07-25T13:24:48.256Z,8.27
2022-07-25T13:27:15.192Z,14.85
2022-07-25T13:29:41.627Z,9.48
2022-07-25T13:32:10.176Z,7.88
2022-07-25T13:34:36.803Z,9.98
2022-07-25T13:37:04.493Z,8.90
2022-07-25T13:39:31.038Z,10.73
2022-07-25T13:41:57.510Z,10.00
2022-07-25T13:44:23.935Z,8.05
2022-07-25T13:46:50.595Z,8.07
2022-07-25T13:49:18.103Z,8.90
2022-07-25T13:51:45.545Z,8.20
2022-07-25T13:54:12.407Z,8.70
2022-07-25T13:56:38.913Z,10.02
2022-07-25T13:59:05.721Z,9.73
2022-07-25T14:01:32.337Z,8.82
2022-07-25T14:03:58.888Z,7.50
2022-07-25T14:06:25.331Z,7.32
2022-07-25T14:08:51.760Z,7.90
2022-07-25T14:11:18.190Z,8.88
2022-07-25T14:13:45.229Z,8.27
2022-07-25T14:16:16.345Z,10.00
2022-07-25T14:18:42.762Z,8.80
2022-07-25T14:21:09.255Z,8.68
2022-07-25T14:23:35.692Z,11.80
2022-07-25T14:26:02.155Z,9.00
2022-07-25T14:28:29.672Z,10.00
2022-07-25T14:30:56.592Z,8.32
2022-07-25T14:33:23.028Z,10.75
2022-07-25T14:35:49.483Z,10.52
2022-07-25T14:38:15.942Z,7.95
2022-07-25T14:40:42.698Z,8.70
2022-07-25T14:43:09.124Z,8.05
2022-07-25T14:45:36.983Z,10.10
2022-07-25T14:48:06.148Z,9.73
2022-07-25T14:50:32.567Z,8.90
2022-07-25T14:52:58.999Z,8.57
2022-07-25T14:55:25.793Z,7.43
2022-07-25T14:57:52.352Z,8.55
2022-07-25T15:00:18.859Z,11.85
2022-07-25T15:02:45.346Z,8.00
2022-07-25T15:05:11.850Z,8.15
2022-07-25T15:07:38.333Z,11.45
2022-07-25T15:10:05.308Z,8.65
2022-07-25T15:12:31.816Z,8.80
2022-07-25T15:14:58.265Z,8.50
2022-07-25T15:17:24.776Z,8.40
2022-07-25T15:19:51.309Z,7.93
2022-07-25T15:22:17.811Z,7.65
2022-07-25T15:25:21.436Z,7.95
2022-07-25T15:27:31.132Z,13.18
2022-07-25T15:29:58.232Z,8.88
2022-07-25T15:32:24.671Z,8.70
2022-07-25T15:34:51.142Z,10.65
2022-07-25T15:37:17.610Z,7.47
2022-07-25T15:39:45.341Z,7.78
2022-07-25T15:42:12.187Z,9.27
2022-07-25T15:44:38.620Z,13.05
2022-07-25T15:47:06.728Z,12.15
2022-07-25T15:49:33.386Z,7.88
2022-07-25T15:52:00.157Z,8.88
2022-07-25T15:54:29.501Z,7.88
2022-07-25T15:56:56.363Z,10.52
2022-07-25T15:59:22.991Z,6.90
2022-07-25T16:01:49.420Z,7.63
2022-07-25T16:04:16.002Z,12.98
2022-07-25T16:06:42.608Z,8.40
2022-07-25T16:09:09.257Z,9.68
2022-07-25T16:11:38.182Z,9.90
2022-07-25T16:14:05.387Z,13.45
2022-07-25T16:16:31.900Z,14.55
2022-07-25T16:18:58.352Z,7.35
2022-07-25T16:21:24.820Z,9.40
2022-07-25T16:23:51.268Z,10.13
2022-07-25T16:26:17.738Z,9.93
2022-07-25T16:28:44.239Z,8.18
2022-07-25T16:31:10.796Z,10.38
2022-07-25T16:33:37.991Z,8.15
2022-07-25T16:36:04.889Z,12.77
2022-07-25T16:38:31.600Z,17.58
2022-07-25T16:40:58.033Z,13.80
2022-07-25T16:43:24.777Z,15.85
2022-07-25T16:45:51.541Z,15.15
2022-07-25T16:48:18.153Z,13.30
2022-07-25T16:50:44.662Z,12.13
2022-07-25T16:53:11.091Z,12.68
2022-07-25T16:55:38.347Z,9.40
2022-07-25T16:58:04.827Z,12.85
2022-07-25T17:00:31.282Z,20.02
2022-07-25T17:02:58.497Z,17.00
2022-07-25T17:05:25.051Z,9.05
2022-07-25T17:07:57.245Z,19.92
2022-07-25T17:10:25.230Z,17.90
2022-07-25T17:12:51.691Z,12.95
2022-07-25T17:15:18.195Z,10.82
2022-07-25T17:17:44.613Z,7.22
2022-07-25T17:20:11.568Z,7.20
2022-07-25T17:22:38.784Z,7.20
2022-07-25T17:25:06.428Z,6.15
2022-07-25T17:27:32.872Z,8.20
2022-07-25T17:29:59.299Z,6.10
2022-07-25T17:32:29.744Z,7.38
2022-07-25T17:34:57.244Z,7.82
2022-07-25T17:37:24.341Z,8.57
2022-07-25T17:39:50.851Z,7.30
2022-07-25T17:42:22.092Z,7.00
2022-07-25T17:44:50.135Z,10.73
2022-07-25T17:47:16.671Z,8.18
2022-07-25T17:49:43.127Z,9.00
2022-07-25T17:52:12.209Z,12.70
2022-07-25T17:54:42.602Z,10.70
2022-07-25T17:59:35.645Z,7.10
2022-07-25T18:02:03.050Z,7.47
2022-07-25T18:04:29.623Z,7.00
2022-07-25T18:06:57.244Z,6.72
2022-07-25T18:09:24.216Z,7.10
2022-07-25T18:11:50.946Z,6.22
2022-07-25T18:14:17.363Z,4.10
2022-07-25T18:16:45.384Z,3.92
2022-07-25T18:19:12.200Z,4.30
2022-07-25T18:21:38.727Z,4.80
2022-07-25T18:24:05.971Z,5.10
2022-07-25T18:26:33.656Z,5.45
2022-07-25T18:29:00.302Z,2.95
2022-07-25T18:31:26.794Z,3.45
2022-07-25T18:33:53.253Z,3.03
2022-07-25T18:36:20.437Z,4.50
2022-07-25T18:38:48.364Z,3.72
2022-07-25T18:41:30.613Z,2.97
2022-07-25T18:43:57.342Z,3.38
2022-07-25T18:46:24.228Z,2.92
2022-07-25T18:48:51.304Z,4.45
2022-07-25T18:51:17.875Z,4.30
2022-07-25T18:53:47.938Z,4.43
2022-07-25T18:58:41.434Z,5.93
2022-07-25T19:01:09.224Z,4.45
2022-07-25T19:03:37.360Z,5.97
2022-07-25T19:06:04.537Z,4.10
2022-07-25T19:08:31.052Z,8.65
2022-07-25T19:10:57.532Z,5.22
2022-07-25T19:13:47.697Z,5.45
2022-07-25T19:16:11.837Z,8.77
2022-07-25T19:18:39.268Z,6.50
2022-07-25T19:21:05.919Z,4.65
2022-07-25T19:23:32.622Z,5.35
2022-07-25T19:26:00.365Z,6.95
2022-07-25T19:28:28.788Z,5.90
2022-07-25T19:30:56.451Z,9.25
2022-07-25T19:33:23.024Z,9.23
2022-07-25T19:35:49.548Z,6.18
2022-07-25T19:38:15.963Z,10.82
2022-07-25T19:40:42.912Z,4.93
2022-07-25T19:43:09.423Z,6.43
2022-07-25T19:45:36.369Z,4.82
2022-07-25T19:48:02.809Z,4.18
2022-07-25T19:50:29.312Z,3.53
2022-07-25T19:52:55.840Z,4.82
2022-07-25T19:55:22.384Z,7.28
2022-07-25T19:57:48.800Z,9.00
2022-07-25T20:00:15.623Z,10.32
2022-07-25T20:02:42.108Z,12.52
2022-07-25T20:05:09.982Z,8.68
2022-07-25T20:07:36.431Z,12.45
2022-07-25T20:10:04.356Z,9.27
2022-07-25T20:12:33.397Z,9.45
2022-07-25T20:14:59.910Z,16.75
2022-07-25T20:17:26.769Z,17.73
2022-07-25T20:19:53.363Z,13.18
2022-07-25T20:22:19.947Z,16.65
2022-07-25T20:24:46.438Z,14.05
2022-07-25T20:27:12.872Z,13.85
2022-07-25T20:29:39.312Z,18.88
2022-07-25T20:32:05.962Z,16.77
2022-07-25T20:34:32.633Z,14.35
2022-07-25T20:36:59.060Z,14.55
2022-07-25T20:39:26.367Z,15.88
2022-07-25T20:41:55.249Z,13.00
2022-07-25T20:44:21.804Z,12.20
2022-07-25T20:46:48.239Z,15.02
2022-07-25T20:49:14.720Z,14.48
2022-07-25T20:51:41.208Z,17.73
2022-07-25T20:54:07.888Z,12.35
2022-07-25T20:56:34.316Z,18.20
2022-07-25T20:59:00.786Z,13.88
2022-07-25T21:01:27.333Z,13.20
2022-07-25T21:03:53.831Z,11.75
2022-07-25T21:06:20.278Z,11.55
2022-07-25T21:08:53.821Z,17.38
2022-07-25T21:11:20.284Z,14.63
2022-07-25T21:13:46.767Z,10.52
2022-07-25T21:16:13.424Z,11.25
2022-07-25T21:18:39.911Z,11.00
2022-07-25T21:21:11.722Z,13.52
2022-07-25T21:23:38.866Z,15.82
2022-07-25T21:26:05.721Z,10.77
2022-07-25T21:28:32.232Z,11.50
2022-07-25T21:30:58.694Z,11.63
2022-07-25T21:33:25.196Z,10.00
2022-07-25T21:35:53.666Z,15.40
2022-07-25T21:38:27.407Z,13.27
2022-07-25T21:40:55.361Z,14.65
2022-07-25T21:43:21.852Z,20.25
2022-07-25T21:45:48.373Z,17.25
2022-07-25T21:48:14.943Z,16.48
2022-07-25T21:50:44.014Z,13.63
2022-07-25T21:53:13.729Z,12.63
2022-07-25T21:55:40.621Z,15.88
2022-07-25T21:58:07.823Z,14.60
2022-07-25T22:00:40.038Z,18.90
2022-07-25T22:03:11.786Z,16.92
2022-07-25T22:05:38.249Z,14.93
2022-07-25T22:08:05.116Z,19.00
2022-07-25T22:10:31.634Z,13.35
2022-07-25T22:12:58.074Z,18.17
2022-07-25T22:15:24.579Z,17.13
2022-07-25T22:17:51.018Z,15.68
2022-07-25T22:20:19.320Z,17.38
2022-07-25T22:22:48.002Z,17.80
2022-07-25T22:25:15.537Z,15.05
2022-07-25T22:27:43.094Z,14.40
2022-07-25T22:30:14.702Z,16.58
2022-07-25T22:32:44.762Z,16.35
2022-07-25T22:35:12.494Z,16.30
2022-07-25T22:37:38.970Z,22.83
2022-07-25T22:40:06.051Z,18.38
2022-07-25T22:42:32.484Z,18.75
2022-07-25T22:44:58.953Z,15.90
2022-07-25T22:47:25.390Z,13.70
2022-07-25T22:49:51.823Z,18.55
2022-07-25T22:52:18.300Z,15.93
2022-07-25T22:54:44.791Z,18.23
2022-07-25T22:57:11.211Z,19.23
2022-07-25T22:59:37.666Z,17.63
2022-07-25T23:02:04.557Z,17.60
2022-07-25T23:04:31.051Z,15.95
2022-07-25T23:06:57.589Z,16.33
2022-07-25T23:09:24.037Z,15.07
2022-07-25T23:11:50.671Z,14.60
2022-07-25T23:14:17.111Z,16.73
2022-07-25T23:16:43.640Z,12.27
2022-07-25T23:19:10.556Z,11.82
2022-07-25T23:21:37.195Z,11.63
2022-07-25T23:24:05.690Z,11.13
2022-07-25T23:26:32.116Z,11.80
2022-07-25T23:28:58.563Z,15.13
2022-07-25T23:31:25.039Z,9.98
2022-07-25T23:33:51.501Z,14.82
2022-07-25T23:36:17.935Z,11.90
2022-07-25T23:38:44.378Z,12.27
2022-07-25T23:41:10.814Z,8.80
2022-07-25T23:43:56.555Z,9.32
2022-07-25T23:46:27.894Z,16.80
2022-07-25T23:48:57.362Z,8.90
2022-07-25T23:51:23.882Z,11.05
2022-07-25T23:53:50.394Z,12.95
2022-07-25T23:56:20.817Z,8.73
2022-07-25T23:58:49.870Z,8.45
